Home > Products > Valid Products > TAF

000
FTUS43 KPAH 262340
TAFCGI
TAF
KCGI 262340Z 2700/2724 17009KT P6SM SCT090 BKN250
     FM270900 18005KT P6SM VCSH SCT050 BKN150
     FM271800 17009KT 6SM -TSRA SCT025CB BKN040=



000
FTUS43 KPAH 262340
TAFPAH
TAF
KPAH 262340Z 2700/2724 17006KT P6SM SCT100 BKN250
     FM271400 18008KT P6SM SCT050 BKN200=



000
FTUS43 KPAH 262340
TAFEVV
TAF
KEVV 262340Z 2700/2724 17005KT P6SM FEW100 BKN250
     FM271500 19009G16KT P6SM SCT040 BKN200=



000
FTUS43 KPAH 262037 AAA
TAFEVV
TAF AMD
KEVV 262037Z 2621/2718 17006KT P6SM -SHRA VCTS BKN080CB
     FM270000 17005KT P6SM BKN150
     FM271500 20010G17KT P6SM BKN150=



000
FTUS43 KPAH 261935 AAA
TAFCGI
TAF AMD
KCGI 261935Z 2620/2718 12009KT 6SM -TSRA OVC090CB
      TEMPO 2620/2623 4SM TSRA BKN025CB
     FM262300 16006KT P6SM BKN080
     FM271300 18009KT 4SM TSRA OVC025CB=



000
FTUS43 KPAH 261633 AAE
TAFPAH
TAF AMD
KPAH 261633Z 2617/2712 23008KT P6SM BKN016
     FM261800 36008KT 2SM +TSRA OVC012CB
     FM261930 16008KT P6SM BKN025
     FM270100 18006KT P6SM BKN040=



000
FTUS43 KPAH 261549 AAD
TAFCGI
TAF AMD
KCGI 261549Z 2616/2712 20009KT P6SM VCTS OVC021CB
     FM261615 36015G25KT 1SM +TSRA OVC015CB
     FM261800 11010KT 3SM TSRA BKN025CB
     FM262300 18008KT P6SM BKN040=



000
FTUS43 KPAH 261204 AAC
TAFPAH
TAF AMD
KPAH 261204Z 2612/2712 20005KT P6SM SCT035 BKN050
     FM261400 20010G15KT P6SM VCTS BKN020CB
     FM270100 18006KT P6SM BKN040=



000
FTUS43 KPAH 261203 AAA
TAFCGI
TAF AMD
KCGI 261203Z 2612/2712 19006KT P6SM SCT035 BKN050
     FM261400 19011G16KT P6SM VCTS BKN020CB
     FM270100 18008KT P6SM BKN040=



000
FTUS43 KPAH 252320
TAFEVV
TAF
KEVV 252320Z 2600/2624 20008KT P6SM BKN150
     FM261000 19005KT 6SM HZ BKN018
     FM261500 21010KT P6SM BKN035=



000
FTUS43 KPAH 252320
TAFCGI
TAF
KCGI 252320Z 2600/2624 19009KT P6SM BKN050
     FM260900 19004KT 5SM BR BKN020
     FM261400 20011KT P6SM BKN040=



000
FTUS43 KPAH 252320
TAFPAH
TAF
KPAH 252320Z 2600/2624 18007KT P6SM BKN050
     FM260900 19004KT 5SM BR BKN020
     FM261400 20010KT P6SM BKN040=



000
FTUS43 KPAH 252115 AAC
TAFPAH
TAF AMD
KPAH 252115Z 2521/2618 17006KT P6SM VCSH SCT025 BKN080
     FM260000 18006KT P6SM BKN050
     FM260900 19004KT 5SM BR BKN022
     FM261400 20010KT P6SM BKN040=



000
FTUS43 KPAH 251914 AAA
TAFCGI
TAF AMD
KCGI 251914Z 2519/2618 18006KT P6SM BKN100
      TEMPO 2521/2524 4SM SHRA BKN025
     FM260000 19009KT P6SM BKN050
     FM260900 19004KT 5SM BR BKN022
     FM261400 20010KT P6SM BKN040=



000
FTUS43 KPAH 251215 CCA
TAFPAH
TAF COR
KPAH 251215Z 2512/2612 18003KT P6SM -SHRA VCTS BKN060CB BKN250
      TEMPO 2512/2514 3SM TSRA BR SCT020 BKN035CB
     FM251500 20008G15KT P6SM SCT040 BKN250
     FM260000 18006KT P6SM FEW050 SCT250=



000
FTUS43 KPAH 251205 AAA
TAFPAH
TAF AMD
KPAH 251205Z 2512/2612 18003KT P6SM -SHRA VCTS BKN060CB BKN250
      TEMPO 2512/2513 3SM TSRA BR SCT020 BKN035CB
     FM251500 20008G15KT P6SM SCT040 BKN250
     FM260000 18006KT P6SM FEW050 SCT250=



000
FTUS43 KPAH 251132
TAFPAH
TAF
KPAH 251132Z 2512/2612 18003KT P6SM -SHRA VCTS BKN060CB BKN250
     FM251500 20008G15KT P6SM SCT040 BKN250
     FM260000 18006KT P6SM FEW050 SCT250=



000
FTUS43 KPAH 251132
TAFCGI
TAF
KCGI 251132Z 2512/2612 18004KT P6SM -SHRA VCTS BKN060CB BKN250
     FM251500 19010G18KT P6SM SCT040 BKN250
     FM260000 19009KT P6SM FEW050 SCT250=



000
FTUS43 KPAH 250121 AAA
TAFCGI
TAF AMD
KCGI 250121Z 2501/2524 18011G18KT P6SM BKN200
     FM250200 17005KT P6SM FEW050 BKN250
     FM251500 19010G18KT P6SM SCT040 BKN250=



000
FTUS43 KPAH 241720
TAFCGI
TAF
KCGI 241720Z 2418/2518 18007KT P6SM FEW070 BKN250
     FM250100 17005KT P6SM SCT050 BKN120=



000
FTUS43 KPAH 241720
TAFPAH
TAF
KPAH 241720Z 2418/2518 18005KT P6SM SCT070 BKN250
     FM250100 17005KT P6SM SCT050 BKN120=



000
FTUS43 KPAH 241720
TAFEVV
TAF
KEVV 241720Z 2418/2518 20008KT P6SM BKN080
     FM250000 17003KT P6SM SCT050 BKN120=



000
FTUS43 KPAH 241121
TAFCGI
TAF
KCGI 241121Z 2412/2512 VRB05KT P6SM VCSH SCT050 BKN090
     FM241500 18005KT P6SM VCTS BKN050CB
     FM250100 18005KT P6SM SCT050 BKN120=



000
FTUS43 KPAH 241121
TAFPAH
TAF
KPAH 241121Z 2412/2512 VRB03KT P6SM VCSH SCT060 BKN120
     FM241800 18006KT P6SM VCTS BKN050CB
     FM250000 17003KT P6SM SCT050 BKN120=



000
FTUS43 KPAH 241121
TAFEVV
TAF
KEVV 241121Z 2412/2512 VRB03KT P6SM FEW060 BKN120
     FM241500 20008KT P6SM SCT040 BKN090
     FM250000 17003KT P6SM SCT050 BKN120=



    US Dept of Commerce
    National Oceanic and Atmospheric Administration
    National Weather Service
    1325 East West Highway
    Silver Spring, MD 20910
    Page Author: NWS Internet Services Team
Disclaimer
Information Quality
Credits
Glossary
Privacy Policy
Freedom of Information Act (FOIA)
About Us
Career Opportunities